Time;durP1;ratioP1;P1;durP2;ratioP2;P2;SDS_P1;SDS_P2;PMS_P1;PMS_P2;Temp;Humidity;BMP_temperature;BMP_pressure;BME280_temperature;BME280_humidity;BME280_pressure;Samples;Min_cycle;Max_cycle;Signal;HPM_P1;HPM_P2
2023/11/16 00:00:56;;;;;;;6.05;2.80;;;;;;;5.12;83.96;93119.50;2071491;69;20136;-81
2023/11/16 00:03:24;;;;;;;5.10;2.83;;;;;;;5.07;83.65;93115.63;2071124;69;20133;-81
2023/11/16 00:05:49;;;;;;;3.13;1.95;;;;;;;5.18;83.61;93112.41;2071285;69;20159;-81
2023/11/16 00:08:16;;;;;;;4.07;2.72;;;;;;;5.19;83.20;93116.69;2071387;69;20175;-80
2023/11/16 00:10:43;;;;;;;5.40;2.60;;;;;;;5.14;83.42;93114.13;2070870;69;20152;-81
2023/11/16 00:13:11;;;;;;;4.85;2.80;;;;;;;5.03;83.45;93102.03;2067910;69;20132;-82
2023/11/16 00:15:37;;;;;;;5.85;2.47;;;;;;;5.07;82.91;93099.63;2068088;69;20154;-81
2023/11/16 00:18:04;;;;;;;4.05;2.58;;;;;;;4.98;82.62;93107.84;2071297;69;20256;-79
2023/11/16 00:20:32;;;;;;;4.18;2.60;;;;;;;4.99;82.62;93101.69;2070903;69;20290;-81
2023/11/16 00:22:58;;;;;;;3.90;2.50;;;;;;;5.00;82.56;93097.63;2064891;69;20160;-80
2023/11/16 00:25:26;;;;;;;5.47;2.22;;;;;;;4.96;82.46;93102.09;2067929;69;20176;-80
2023/11/16 00:27:51;;;;;;;3.00;2.17;;;;;;;4.89;82.25;93095.22;2071382;69;20164;-81
2023/11/16 00:30:20;;;;;;;3.20;2.22;;;;;;;4.78;82.26;93115.19;2071178;69;20543;-81
2023/11/16 00:32:55;;;;;;;5.18;2.60;;;;;;;4.21;84.91;93115.69;2071476;69;20155;-80
2023/11/16 00:35:24;;;;;;;4.10;2.60;;;;;;;4.62;84.40;93117.28;2070842;69;20140;-79
2023/11/16 00:37:52;;;;;;;4.45;2.20;;;;;;;4.67;83.63;93107.94;2071235;69;20225;-80
2023/11/16 00:40:19;;;;;;;2.72;2.10;;;;;;;4.61;83.11;93113.00;2071036;69;20533;-79
2023/11/16 00:42:46;;;;;;;3.70;2.50;;;;;;;4.65;83.22;93116.16;2067822;69;20886;-81
2023/11/16 00:45:12;;;;;;;2.83;2.05;;;;;;;4.66;83.46;93098.09;2071226;69;20611;-80
2023/11/16 00:47:39;;;;;;;5.57;2.35;;;;;;;4.70;83.00;93118.00;2065105;69;20183;-81
2023/11/16 00:50:07;;;;;;;3.58;1.90;;;;;;;4.69;82.84;93115.78;2071077;69;20149;-79
2023/11/16 00:52:35;;;;;;;6.22;2.25;;;;;;;4.60;83.17;93114.31;2071519;69;20243;-78
2023/11/16 00:55:04;;;;;;;3.17;2.30;;;;;;;4.58;83.78;93116.91;2071667;69;20203;-80
2023/11/16 00:57:31;;;;;;;2.13;1.60;;;;;;;4.40;82.98;93107.69;2065725;69;20136;-81
2023/11/16 00:59:58;;;;;;;3.22;1.83;;;;;;;4.48;82.84;93119.53;2065168;69;20205;-81
2023/11/16 01:02:25;;;;;;;5.20;1.90;;;;;;;4.37;83.22;93122.72;2068183;69;20140;-79
2023/11/16 01:04:53;;;;;;;3.17;2.00;;;;;;;4.49;82.97;93126.63;2071739;69;20174;-79
2023/11/16 01:07:21;;;;;;;2.50;1.90;;;;;;;4.47;82.96;93111.75;2068494;69;20176;-79
2023/11/16 01:09:48;;;;;;;4.93;1.60;;;;;;;4.50;83.06;93113.41;2071594;69;20172;-79
2023/11/16 01:12:17;;;;;;;4.57;1.52;;;;;;;4.43;83.06;93119.75;2067867;69;20175;-79
2023/11/16 01:14:45;;;;;;;2.33;1.40;;;;;;;4.38;82.94;93110.28;2071704;69;20156;-81
2023/11/16 01:17:18;;;;;;;2.90;1.73;;;;;;;4.26;82.90;93112.72;2071661;69;20152;-81
2023/11/16 01:19:47;;;;;;;2.78;1.80;;;;;;;4.26;83.49;93111.97;2065727;69;20152;-80
2023/11/16 01:22:22;;;;;;;2.92;1.65;;;;;;;4.24;82.63;93111.78;2068233;69;20598;-82
2023/11/16 01:24:51;;;;;;;3.22;1.70;;;;;;;4.22;82.67;93108.84;2068640;69;20148;-82
2023/11/16 01:27:19;;;;;;;3.72;1.70;;;;;;;4.16;82.31;93111.06;2062639;69;20141;-81
2023/11/16 01:29:45;;;;;;;3.63;1.60;;;;;;;4.19;82.08;93109.94;2068085;69;20184;-82
2023/11/16 01:32:13;;;;;;;4.10;1.40;;;;;;;4.13;82.65;93118.50;2068153;69;20869;-82
2023/11/16 01:34:41;;;;;;;2.65;1.70;;;;;;;4.02;82.35;93096.59;2065486;69;20578;-82
2023/11/16 01:37:08;;;;;;;5.20;1.73;;;;;;;4.17;82.38;93127.22;2065493;69;20175;-80
2023/11/16 01:39:34;;;;;;;4.20;1.45;;;;;;;4.09;82.98;93134.84;2064728;69;20140;-80
2023/11/16 01:42:01;;;;;;;2.95;1.40;;;;;;;4.04;82.68;93124.63;2068047;69;20146;-80
2023/11/16 01:44:26;;;;;;;3.22;1.73;;;;;;;3.92;82.92;93123.53;2068320;69;20182;-78
2023/11/16 01:46:52;;;;;;;4.88;1.60;;;;;;;4.08;82.66;93113.88;2071439;69;20637;-78
2023/11/16 01:49:18;;;;;;;3.03;1.52;;;;;;;4.00;82.14;93116.66;2068358;69;20586;-80
2023/11/16 01:51:46;;;;;;;1.60;1.40;;;;;;;3.87;82.59;93111.28;2065523;69;20240;-81
2023/11/16 01:54:15;;;;;;;5.13;1.50;;;;;;;3.85;83.28;93102.75;2071609;69;20159;-81
2023/11/16 01:56:43;;;;;;;2.53;1.30;;;;;;;3.90;82.93;93101.06;2071452;69;20156;-80
2023/11/16 01:59:11;;;;;;;8.07;1.45;;;;;;;3.91;82.64;93096.97;2071489;69;20137;-82
2023/11/16 02:01:37;;;;;;;3.00;1.30;;;;;;;3.91;82.61;93099.75;2068147;69;20140;-81
2023/11/16 02:04:04;;;;;;;3.05;1.20;;;;;;;3.83;82.49;93096.97;2065058;69;20170;-81
2023/11/16 02:06:31;;;;;;;2.40;1.48;;;;;;;3.88;82.88;93096.03;2071600;69;20159;-81
2023/11/16 02:08:58;;;;;;;3.53;1.40;;;;;;;3.78;83.42;93095.13;2068066;69;20255;-81
2023/11/16 02:11:23;;;;;;;1.83;1.30;;;;;;;3.73;82.90;93107.19;2071548;69;20141;-80
2023/11/16 02:13:50;;;;;;;3.45;1.52;;;;;;;3.67;82.52;93112.94;2068361;69;20257;-81
2023/11/16 02:16:23;;;;;;;1.80;1.40;;;;;;;3.67;82.95;93093.47;2068332;69;20193;-81
2023/11/16 02:18:50;;;;;;;2.65;1.50;;;;;;;3.72;82.74;93116.84;2067692;69;20252;-80
2023/11/16 02:21:17;;;;;;;5.55;1.50;;;;;;;3.72;83.01;93114.81;2068010;69;20225;-82
2023/11/16 02:23:43;;;;;;;2.05;1.50;;;;;;;3.31;82.99;93099.91;2067322;69;20588;-81
2023/11/16 02:26:09;;;;;;;2.03;1.38;;;;;;;3.48;83.46;93102.16;2067961;69;20555;-79
2023/11/16 02:28:35;;;;;;;4.80;1.45;;;;;;;3.48;84.13;93104.19;2064680;69;20210;-79
2023/11/16 02:31:01;;;;;;;3.60;1.35;;;;;;;3.54;83.78;93099.19;2067547;69;20153;-79
2023/11/16 02:33:28;;;;;;;1.83;1.60;;;;;;;3.56;83.31;93091.75;2068192;69;20159;-80
2023/11/16 02:35:57;;;;;;;1.90;1.50;;;;;;;3.54;82.71;93097.16;2067554;69;20160;-81
2023/11/16 02:38:24;;;;;;;3.22;1.48;;;;;;;3.53;82.54;93092.16;2067496;69;20125;-82
2023/11/16 02:40:51;;;;;;;1.77;1.30;;;;;;;3.54;82.63;93096.41;2067622;69;20129;-79
2023/11/16 02:43:20;;;;;;;3.60;1.50;;;;;;;3.47;82.69;93097.88;2067484;69;20153;-82
2023/11/16 02:45:53;;;;;;;3.70;1.38;;;;;;;3.50;82.78;93096.78;2067760;69;20172;-82
2023/11/16 02:48:20;;;;;;;2.22;1.20;;;;;;;3.37;82.68;93105.28;2068202;69;20255;-82
2023/11/16 02:50:48;;;;;;;4.20;1.55;;;;;;;3.39;83.62;93099.16;2068562;69;20179;-82
2023/11/16 02:53:17;;;;;;;3.42;1.50;;;;;;;3.40;82.98;93100.66;2067743;69;20235;-80
2023/11/16 02:55:44;;;;;;;2.72;1.35;;;;;;;3.52;82.80;93091.38;2067512;69;20202;-80
2023/11/16 02:58:11;;;;;;;2.45;1.63;;;;;;;3.53;82.91;93084.53;2070434;69;20137;-80
2023/11/16 03:00:36;;;;;;;1.45;1.10;;;;;;;3.33;82.65;93081.91;2064882;69;20129;-80
2023/11/16 03:03:02;;;;;;;3.88;1.45;;;;;;;3.41;82.90;93086.19;2067577;69;20143;-79
2023/11/16 03:05:28;;;;;;;1.92;1.30;;;;;;;3.40;82.72;93090.28;2064930;69;20220;-80
2023/11/16 03:07:55;;;;;;;2.45;1.27;;;;;;;3.44;82.56;93093.44;2067513;69;20235;-80
2023/11/16 03:10:21;;;;;;;2.72;1.30;;;;;;;3.44;82.48;93090.66;2064354;69;20673;-79
2023/11/16 03:12:49;;;;;;;3.70;1.27;;;;;;;3.45;82.28;93097.69;2067762;69;20148;-81
2023/11/16 03:15:14;;;;;;;1.35;1.00;;;;;;;3.45;82.04;93091.41;2067455;69;20140;-79
2023/11/16 03:17:43;;;;;;;2.45;0.90;;;;;;;3.46;82.75;93079.69;2067471;69;20128;-81
2023/11/16 03:20:12;;;;;;;1.08;0.90;;;;;;;3.22;83.21;93083.75;2068212;69;20177;-79
2023/11/16 03:22:41;;;;;;;2.17;1.35;;;;;;;3.31;83.18;93088.78;2067737;69;20144;-81
2023/11/16 03:25:10;;;;;;;2.95;1.40;;;;;;;3.31;82.96;93085.25;2067868;69;20143;-82
2023/11/16 03:27:37;;;;;;;3.10;1.48;;;;;;;3.31;82.49;93080.44;2066723;69;20308;-80
2023/11/16 03:30:05;;;;;;;3.72;1.08;;;;;;;3.18;82.70;93041.63;2064968;69;20144;-81
2023/11/16 03:32:31;;;;;;;2.35;1.30;;;;;;;3.34;83.02;93059.09;2068155;69;20169;-78
2023/11/16 03:34:57;;;;;;;3.17;1.30;;;;;;;3.28;83.18;93064.09;2067486;69;20189;-80
2023/11/16 03:37:24;;;;;;;2.05;1.20;;;;;;;3.33;82.82;93051.28;2061851;69;20132;-79
2023/11/16 03:39:49;;;;;;;1.92;1.10;;;;;;;3.26;82.27;93053.53;2067609;69;20148;-79
2023/11/16 03:42:16;;;;;;;1.48;0.98;;;;;;;3.31;81.89;93051.88;2068059;69;20630;-79
2023/11/16 03:44:46;;;;;;;2.60;1.20;;;;;;;3.26;82.28;93050.00;2068192;69;20140;-79
2023/11/16 03:47:18;;;;;;;3.72;0.90;;;;;;;3.20;82.90;93055.00;2067554;69;20141;-80
2023/11/16 03:49:44;;;;;;;1.73;1.25;;;;;;;3.28;83.01;93058.53;2064826;69;20193;-80
2023/11/16 03:52:10;;;;;;;1.95;1.05;;;;;;;3.31;82.12;93057.44;2067933;69;20136;-80
2023/11/16 03:54:36;;;;;;;2.42;1.20;;;;;;;3.10;82.24;93049.22;2068159;69;20180;-80
2023/11/16 03:57:03;;;;;;;3.65;1.40;;;;;;;3.12;82.30;93054.25;2067185;69;20165;-80
2023/11/16 03:59:36;;;;;;;2.33;1.00;;;;;;;3.14;81.92;93062.78;2064750;69;20512;-82
2023/11/16 04:02:08;;;;;;;1.02;0.93;;;;;;;3.13;81.93;93062.03;2067650;69;20216;-81
2023/11/16 04:04:34;;;;;;;1.42;1.00;;;;;;;3.13;82.16;93055.72;2067706;69;20136;-81
2023/11/16 04:07:11;;;;;;;2.22;1.27;;;;;;;3.11;82.03;93058.31;2068078;69;20194;-82
2023/11/16 04:09:37;;;;;;;3.03;0.88;;;;;;;3.03;81.78;93059.06;2067230;69;20149;-79
2023/11/16 04:12:03;;;;;;;3.70;1.10;;;;;;;3.05;82.06;93056.44;2067392;69;20186;-79
2023/11/16 04:14:32;;;;;;;1.85;1.48;;;;;;;2.69;82.09;93055.81;2067948;69;20154;-80
2023/11/16 04:17:00;;;;;;;2.95;2.00;;;;;;;2.82;82.56;93054.91;2068521;69;20632;-81
2023/11/16 04:19:27;;;;;;;6.75;2.60;;;;;;;2.66;82.79;93051.38;2068214;69;20286;-80
2023/11/16 04:21:59;;;;;;;9.63;5.63;;;;;;;2.77;83.38;93056.56;2071346;69;20171;-81
2023/11/16 04:24:28;;;;;;;7.57;6.22;;;;;;;2.83;82.43;93053.63;2065183;69;20168;-79
2023/11/16 04:26:56;;;;;;;6.78;5.72;;;;;;;2.86;82.11;93053.25;2071064;69;20152;-79
2023/11/16 04:29:24;;;;;;;4.93;4.30;;;;;;;2.86;82.50;93041.41;2068122;69;20140;-81
2023/11/16 04:31:50;;;;;;;2.35;2.15;;;;;;;2.79;82.11;93023.38;2071174;69;20149;-81
2023/11/16 04:34:17;;;;;;;3.55;2.88;;;;;;;2.44;83.68;93016.63;2071238;69;20633;-80
2023/11/16 04:36:42;;;;;;;4.07;2.67;;;;;;;2.64;83.87;93018.53;2071319;69;20137;-81
2023/11/16 04:39:11;;;;;;;3.90;2.70;;;;;;;2.72;82.67;93021.34;2071324;69;20142;-83
2023/11/16 04:41:45;;;;;;;3.75;2.25;;;;;;;2.66;82.46;93024.31;2070769;69;20132;-80
2023/11/16 04:44:11;;;;;;;2.75;1.00;;;;;;;2.66;82.82;93010.41;2070905;69;20152;-81
2023/11/16 04:46:46;;;;;;;3.60;1.70;;;;;;;2.13;85.05;93001.88;2068042;69;20574;-80
2023/11/16 04:49:13;;;;;;;1.83;1.50;;;;;;;1.96;84.55;93000.31;2071132;69;20578;-83
2023/11/16 04:51:40;;;;;;;2.15;1.70;;;;;;;2.49;84.46;93007.38;2071136;69;20683;-81
2023/11/16 04:54:06;;;;;;;8.57;4.97;;;;;;;2.46;83.62;93002.91;2071165;69;20174;-80
2023/11/16 04:56:32;;;;;;;76.05;40.47;;;;;;;2.51;82.92;93004.78;2070920;69;20149;-80
2023/11/16 04:58:57;;;;;;;39.50;21.95;;;;;;;2.54;82.55;93003.69;2071102;69;20148;-81
2023/11/16 05:01:23;;;;;;;27.60;15.68;;;;;;;2.45;82.53;92998.66;2071197;69;20180;-79
2023/11/16 05:03:50;;;;;;;28.13;16.02;;;;;;;2.43;82.39;93004.00;2071063;69;20198;-82
2023/11/16 05:06:15;;;;;;;26.77;15.70;;;;;;;2.46;82.51;92991.81;2071209;69;20168;-81
2023/11/16 05:08:44;;;;;;;7.15;3.88;;;;;;;2.28;82.53;92994.34;2071524;69;20241;-81
2023/11/16 05:11:09;;;;;;;18.73;11.07;;;;;;;2.38;82.82;92986.22;2071392;69;20567;-81
2023/11/16 05:13:35;;;;;;;19.38;11.98;;;;;;;2.45;82.51;93007.75;2067910;69;20172;-82
2023/11/16 05:16:01;;;;;;;22.25;11.95;;;;;;;2.44;82.31;93011.81;2071297;69;20655;-80
2023/11/16 05:18:27;;;;;;;18.98;9.35;;;;;;;2.41;82.02;93001.78;2071161;69;20152;-80
2023/11/16 05:20:56;;;;;;;16.10;9.00;;;;;;;2.29;81.71;92995.84;2071094;69;20136;-81
2023/11/16 05:23:22;;;;;;;17.88;10.55;;;;;;;2.01;83.05;92999.41;2071205;69;20171;-81
2023/11/16 05:25:47;;;;;;;13.90;8.10;;;;;;;2.05;83.74;92968.50;2071085;69;20160;-82
2023/11/16 05:28:14;;;;;;;16.42;8.73;;;;;;;2.28;82.83;92979.69;2071141;69;20218;-80
2023/11/16 05:30:42;;;;;;;11.32;6.55;;;;;;;2.32;82.69;92974.53;2071111;69;20183;-81
2023/11/16 05:33:10;;;;;;;5.57;3.45;;;;;;;2.31;82.17;92975.09;2071047;69;20136;-80
2023/11/16 05:35:35;;;;;;;8.38;5.10;;;;;;;2.26;82.25;92987.84;2071432;69;20152;-80
2023/11/16 05:38:01;;;;;;;5.68;3.97;;;;;;;2.33;82.22;92980.84;2071553;69;20151;-82
2023/11/16 05:40:26;;;;;;;16.17;6.75;;;;;;;2.35;81.63;92975.47;2071851;69;20257;-82
2023/11/16 05:42:53;;;;;;;12.93;6.90;;;;;;;2.47;81.88;92985.69;2071908;69;20147;-83
2023/11/16 05:45:18;;;;;;;8.27;5.70;;;;;;;2.50;82.11;92992.19;2071977;69;20720;-84
2023/11/16 05:47:45;;;;;;;8.38;5.50;;;;;;;2.54;82.21;92996.09;2071986;69;20223;-82
2023/11/16 05:50:11;;;;;;;8.15;4.53;;;;;;;2.54;82.02;93003.69;2072096;69;20156;-83
2023/11/16 05:52:37;;;;;;;8.93;4.70;;;;;;;2.44;81.76;92992.38;2071966;69;20339;-83
2023/11/16 05:55:03;;;;;;;8.07;5.35;;;;;;;2.47;81.84;92991.25;2071897;69;20156;-81
2023/11/16 05:57:29;;;;;;;8.40;4.47;;;;;;;2.45;82.45;92991.06;2072045;69;20147;-80
2023/11/16 05:59:54;;;;;;;6.38;3.42;;;;;;;2.51;82.55;92991.63;2072088;69;20153;-80
2023/11/16 06:02:20;;;;;;;6.78;3.58;;;;;;;2.54;82.04;92995.34;2071943;69;20218;-80
2023/11/16 06:04:45;;;;;;;5.43;4.40;;;;;;;2.53;81.72;92988.31;2072041;69;20309;-80
2023/11/16 06:07:11;;;;;;;10.98;7.15;;;;;;;2.40;82.38;92974.56;2068631;69;20615;-81
2023/11/16 06:09:37;;;;;;;10.48;6.15;;;;;;;2.34;81.69;92968.41;2072043;69;20152;-80
2023/11/16 06:12:03;;;;;;;12.73;5.13;;;;;;;2.44;81.94;92964.56;2071867;69;20173;-82
2023/11/16 06:14:32;;;;;;;8.43;4.25;;;;;;;2.40;82.10;92971.78;2071951;69;20148;-83
2023/11/16 06:16:58;;;;;;;9.13;4.20;;;;;;;2.32;81.73;92957.13;2071714;69;20187;-81
2023/11/16 06:19:24;;;;;;;6.38;3.50;;;;;;;2.35;81.93;92958.81;2072000;69;20570;-83
2023/11/16 06:21:50;;;;;;;2.47;1.77;;;;;;;2.36;81.82;92969.38;2071853;69;20136;-82
2023/11/16 06:24:15;;;;;;;5.75;1.67;;;;;;;2.34;81.77;92968.41;2071853;69;20643;-82
2023/11/16 06:26:43;;;;;;;2.67;1.30;;;;;;;2.35;82.17;92965.09;2071816;69;20301;-80
2023/11/16 06:29:09;;;;;;;4.55;2.78;;;;;;;2.25;82.80;92964.16;2071966;69;20152;-83
2023/11/16 06:31:35;;;;;;;6.65;2.42;;;;;;;2.18;82.08;92920.41;2068678;69;20152;-80
2023/11/16 06:34:01;;;;;;;3.20;2.25;;;;;;;2.41;82.48;92948.25;2071359;69;20202;-81
2023/11/16 06:36:30;;;;;;;6.55;4.32;;;;;;;2.03;83.49;92948.88;2068761;69;20157;-80
2023/11/16 06:38:56;;;;;;;7.38;3.95;;;;;;;2.35;82.98;92944.91;2068557;69;20663;-80
2023/11/16 06:41:22;;;;;;;9.30;4.38;;;;;;;2.29;83.01;92945.06;2071756;69;20160;-81
2023/11/16 06:43:48;;;;;;;8.43;4.55;;;;;;;2.40;82.54;92946.78;2072061;69;20144;-80
2023/11/16 06:46:15;;;;;;;9.48;4.50;;;;;;;2.38;82.19;92938.25;2072682;69;20176;-83
2023/11/16 06:48:41;;;;;;;7.85;3.85;;;;;;;2.41;82.54;92948.25;2072234;69;20144;-81
2023/11/16 06:51:08;;;;;;;5.90;3.72;;;;;;;2.37;82.07;92948.63;2072758;69;20209;-81
2023/11/16 06:53:36;;;;;;;7.47;3.15;;;;;;;2.46;81.91;92950.84;2075013;69;20147;-82
2023/11/16 06:56:04;;;;;;;8.45;4.22;;;;;;;2.48;82.28;92942.72;2074207;69;20171;-80
2023/11/16 06:58:32;;;;;;;6.35;3.85;;;;;;;2.47;82.45;92952.34;2074392;69;20144;-80
2023/11/16 07:00:58;;;;;;;8.25;3.90;;;;;;;2.50;81.83;92947.72;2073931;69;20148;-83
2023/11/16 07:03:25;;;;;;;12.43;5.25;;;;;;;2.50;82.06;92942.91;2077656;69;20160;-82
2023/11/16 07:05:52;;;;;;;13.65;7.00;;;;;;;2.45;81.91;92943.09;2075570;69;20219;-84
2023/11/16 07:08:19;;;;;;;15.88;7.75;;;;;;;2.20;82.70;92937.25;2074513;69;20151;-84
2023/11/16 07:10:45;;;;;;;15.80;9.90;;;;;;;2.40;82.95;92939.19;2073038;69;20136;-86
2023/11/16 07:13:15;;;;;;;16.73;8.57;;;;;;;2.54;82.47;92934.94;2074450;69;20511;-83
2023/11/16 07:15:48;;;;;;;18.80;8.18;;;;;;;2.44;82.43;92930.50;2074539;69;20140;-83
2023/11/16 07:18:16;;;;;;;13.85;7.03;;;;;;;2.41;82.18;92929.53;2073589;69;20325;-84
2023/11/16 07:20:43;;;;;;;15.90;7.68;;;;;;;2.25;82.79;92928.78;2073478;69;20136;-84
2023/11/16 07:23:10;;;;;;;11.15;6.35;;;;;;;2.54;82.91;92932.16;2071994;69;20144;-85
2023/11/16 07:25:37;;;;;;;9.88;6.03;;;;;;;2.59;82.61;92913.84;2071803;69;20623;-84
2023/11/16 07:28:04;;;;;;;9.05;4.93;;;;;;;2.70;82.39;92910.72;2068589;69;20144;-84
2023/11/16 07:30:32;;;;;;;4.82;3.20;;;;;;;2.88;81.90;92906.06;2071931;69;20210;-84
2023/11/16 07:32:59;;;;;;;5.13;2.80;;;;;;;3.01;82.34;92894.75;2071907;69;20148;-84
2023/11/16 07:35:25;;;;;;;9.02;5.82;;;;;;;2.99;82.28;92899.41;2071976;69;20155;-83
2023/11/16 07:37:53;;;;;;;7.57;5.30;;;;;;;3.24;82.28;92891.22;2072055;69;20303;-84
2023/11/16 07:40:18;;;;;;;7.20;4.28;;;;;;;3.44;81.52;92892.31;2071783;69;20172;-85
2023/11/16 07:42:46;;;;;;;6.80;4.18;;;;;;;3.36;82.11;92894.34;2072025;69;20613;-85
2023/11/16 07:45:12;;;;;;;16.38;6.78;;;;;;;3.42;82.32;92890.06;2072937;69;20213;-84
2023/11/16 07:47:43;;;;;;;14.30;8.50;;;;;;;3.52;81.41;92893.00;2072132;69;20156;-82
2023/11/16 07:50:11;;;;;;;19.08;9.63;;;;;;;3.43;81.60;92890.78;2071934;69;20144;-82
2023/11/16 07:52:44;;;;;;;17.20;10.20;;;;;;;3.26;82.58;92883.06;2071793;69;20164;-81
2023/11/16 07:55:19;;;;;;;19.00;10.40;;;;;;;3.56;81.48;92879.44;2071653;69;20182;-82
2023/11/16 07:57:47;;;;;;;28.83;14.80;;;;;;;3.52;81.37;92865.16;2072261;69;20239;-83
2023/11/16 08:00:30;;;;;;;40.58;20.95;;;;;;;3.65;81.31;92875.34;2068820;69;20244;-84
2023/11/16 08:05:43;;;;;;;18.25;8.88;;;;;;;3.39;80.44;92873.72;2071831;69;20140;-84
2023/11/16 08:08:12;;;;;;;19.15;10.85;;;;;;;3.62;80.21;92868.09;2071845;69;20224;-84
2023/11/16 08:10:38;;;;;;;21.33;10.55;;;;;;;3.53;79.91;92864.63;2071672;69;20141;-85
2023/11/16 08:13:05;;;;;;;20.75;10.07;;;;;;;3.63;80.57;92884.25;2071725;69;20186;-84
2023/11/16 08:15:34;;;;;;;22.10;10.55;;;;;;;3.51;81.80;92877.59;2071712;69;20147;-87
2023/11/16 08:18:01;;;;;;;20.48;10.60;;;;;;;4.10;84.20;92879.25;2071741;69;20173;-85
2023/11/16 08:20:29;;;;;;;16.60;7.82;;;;;;;4.58;81.47;92871.53;2071645;69;20156;-83
2023/11/16 08:22:56;;;;;;;12.75;8.10;;;;;;;4.57;79.54;92872.84;2068203;69;20136;-83
2023/11/16 08:25:23;;;;;;;17.65;9.95;;;;;;;4.30;79.81;92864.28;2068291;69;20148;-84
2023/11/16 08:27:51;;;;;;;15.68;9.70;;;;;;;4.58;79.50;92860.38;2071629;69;20235;-84
2023/11/16 08:30:18;;;;;;;18.02;11.20;;;;;;;4.72;79.01;92860.84;2071796;69;20164;-83
2023/11/16 08:32:44;;;;;;;16.75;11.02;;;;;;;4.76;78.77;92847.22;2071590;69;20519;-82
2023/11/16 08:35:10;;;;;;;18.77;10.70;;;;;;;4.88;80.57;92858.69;2071669;69;20176;-83
2023/11/16 08:37:37;;;;;;;20.10;10.98;;;;;;;4.82;81.87;92856.88;2071670;69;20229;-85
2023/11/16 08:40:03;;;;;;;14.15;8.90;;;;;;;5.06;82.02;92854.63;2071502;69;20148;-82
2023/11/16 08:42:37;;;;;;;13.68;8.90;;;;;;;5.36;81.04;92848.03;2071722;69;20207;-83
2023/11/16 08:45:04;;;;;;;11.32;7.07;;;;;;;5.64;79.28;92844.00;2071816;69;20168;-83
2023/11/16 08:47:31;;;;;;;16.50;6.47;;;;;;;5.88;76.58;92844.47;2071595;69;20175;-83
2023/11/16 08:49:57;;;;;;;7.72;4.40;;;;;;;6.27;76.78;92851.06;2071633;69;20187;-83
2023/11/16 08:52:24;;;;;;;9.45;4.63;;;;;;;6.00;74.14;92837.06;2071788;69;20670;-83
2023/11/16 08:54:50;;;;;;;8.85;5.38;;;;;;;6.08;75.15;92843.31;2071562;69;20155;-83
2023/11/16 08:57:19;;;;;;;8.05;5.55;;;;;;;6.53;72.47;92830.03;2071444;69;20148;-84
2023/11/16 08:59:59;;;;;;;8.50;4.43;;;;;;;7.21;73.07;92833.81;2071436;69;20159;-84
2023/11/16 09:02:25;;;;;;;6.28;3.47;;;;;;;7.71;71.21;92824.13;2071701;69;20144;-82
2023/11/16 09:04:52;;;;;;;3.40;2.50;;;;;;;7.89;70.25;92814.97;2071554;69;20148;-84
2023/11/16 09:07:18;;;;;;;5.97;2.72;;;;;;;8.13;68.09;92809.66;2071563;69;20148;-83
2023/11/16 09:09:45;;;;;;;6.90;2.92;;;;;;;8.11;65.55;92817.94;2071513;69;20148;-84
2023/11/16 09:12:13;;;;;;;7.25;4.47;;;;;;;7.75;67.71;92818.84;2071371;69;20147;-84
2023/11/16 09:14:41;;;;;;;8.35;5.03;;;;;;;7.46;69.09;92816.00;2068822;69;20229;-85
2023/11/16 09:17:16;;;;;;;9.13;4.13;;;;;;;7.59;68.78;92812.75;2071897;69;20175;-84
2023/11/16 09:19:43;;;;;;;8.75;4.53;;;;;;;8.18;66.86;92813.47;2068862;69;20152;-85
2023/11/16 09:22:09;;;;;;;8.15;3.83;;;;;;;8.95;65.98;92792.88;2072161;69;20577;-83
2023/11/16 09:24:39;;;;;;;5.53;2.90;;;;;;;9.02;66.00;92791.94;2072271;69;20568;-83
2023/11/16 09:27:06;;;;;;;5.45;3.00;;;;;;;9.57;64.65;92807.56;2071925;69;20162;-85
2023/11/16 09:29:36;;;;;;;9.88;4.78;;;;;;;9.20;61.67;92798.78;2072184;69;20183;-84
2023/11/16 09:32:03;;;;;;;10.23;3.95;;;;;;;9.85;63.52;92803.09;2072079;69;20181;-84
2023/11/16 09:34:28;;;;;;;6.75;3.50;;;;;;;9.37;62.35;92792.91;2068819;69;20176;-84
2023/11/16 09:36:54;;;;;;;4.68;2.80;;;;;;;9.28;60.06;92793.72;2072259;69;20232;-86
2023/11/16 09:39:21;;;;;;;4.28;2.28;;;;;;;9.77;59.50;92788.50;2072101;69;20239;-82
2023/11/16 09:41:51;;;;;;;4.40;2.20;;;;;;;10.54;59.03;92797.59;2071885;69;20593;-84
2023/11/16 09:44:18;;;;;;;4.68;2.00;;;;;;;10.61;55.78;92788.91;2072030;69;20163;-83
2023/11/16 09:46:52;;;;;;;6.32;2.00;;;;;;;10.76;57.21;92776.41;2072046;69;20188;-85
2023/11/16 09:49:24;;;;;;;6.15;2.28;;;;;;;10.78;56.39;92773.75;2071922;69;20205;-85
2023/11/16 09:51:51;;;;;;;2.58;1.90;;;;;;;11.26;56.41;92757.56;2071930;69;20546;-85
2023/11/16 09:54:22;;;;;;;3.17;2.10;;;;;;;11.23;55.89;92747.53;2072157;69;20617;-85
2023/11/16 09:56:48;;;;;;;5.20;1.88;;;;;;;11.70;55.09;92742.50;2072038;69;20148;-86
2023/11/16 09:59:25;;;;;;;5.03;1.85;;;;;;;12.73;55.54;92735.47;2072041;69;20135;-85
2023/11/16 10:01:59;;;;;;;4.07;1.65;;;;;;;12.44;49.59;92742.41;2072212;69;20267;-85
2023/11/16 10:04:25;;;;;;;2.30;1.55;;;;;;;11.89;49.53;92733.75;2066186;69;20172;-85
2023/11/16 10:06:53;;;;;;;4.32;2.13;;;;;;;12.54;52.26;92727.38;2072027;69;20258;-85
2023/11/16 10:09:19;;;;;;;5.65;3.28;;;;;;;11.99;52.87;92736.41;2072168;69;20147;-86
2023/11/16 10:11:45;;;;;;;5.63;3.25;;;;;;;12.55;51.70;92737.31;2071861;69;20605;-86
2023/11/16 10:14:11;;;;;;;5.25;2.97;;;;;;;12.51;50.51;92739.91;2072170;69;20591;-84
2023/11/16 10:16:38;;;;;;;3.70;1.88;;;;;;;12.39;48.47;92728.72;2072025;69;20180;-85
2023/11/16 10:19:06;;;;;;;2.55;0.90;;;;;;;14.03;46.59;92729.34;2071873;69;20148;-84
2023/11/16 10:21:39;;;;;;;1.08;0.60;;;;;;;14.33;44.60;92718.75;2071945;69;20145;-85
2023/11/16 10:24:08;;;;;;;;;;;;;;;15.58;43.27;92705.94;2072074;69;20150;-85
2023/11/16 10:26:34;;;;;;;2.85;1.40;;;;;;;14.93;45.20;92700.97;2071840;69;20048;-86
2023/11/16 10:29:00;;;;;;;1.27;0.80;;;;;;;14.22;45.26;92689.22;2071946;69;20160;-86
2023/11/16 10:31:31;;;;;;;2.83;1.30;;;;;;;12.56;44.83;92673.88;2068692;69;20140;-85
2023/11/16 10:33:58;;;;;;;2.90;1.67;;;;;;;12.98;46.84;92664.03;2071956;69;20164;-85
2023/11/16 10:36:27;;;;;;;1.55;1.00;;;;;;;12.73;45.33;92662.75;2071930;69;20180;-84
2023/11/16 10:38:57;;;;;;;1.75;1.10;;;;;;;13.14;47.07;92653.53;2071843;69;20218;-85
2023/11/16 10:41:23;;;;;;;2.15;1.23;;;;;;;12.58;45.44;92645.72;2071773;69;20285;-85
2023/11/16 10:43:52;;;;;;;5.93;1.40;;;;;;;12.23;46.40;92640.31;2071860;69;20615;-85
2023/11/16 10:46:19;;;;;;;6.07;2.40;;;;;;;12.61;47.63;92628.25;2071862;69;20152;-85
2023/11/16 10:48:48;;;;;;;3.35;1.20;;;;;;;12.60;46.33;92634.53;2071864;69;20144;-83
2023/11/16 10:51:17;;;;;;;3.05;1.70;;;;;;;12.74;47.09;92623.97;2071931;69;20217;-83
2023/11/16 10:53:44;;;;;;;3.85;1.63;;;;;;;11.92;46.33;92628.16;2071994;69;20218;-84
2023/11/16 10:56:12;;;;;;;3.40;0.82;;;;;;;12.40;47.83;92615.16;2071784;69;20546;-83
2023/11/16 10:58:42;;;;;;;1.52;0.73;;;;;;;12.45;46.85;92613.28;2071856;69;20585;-83
2023/11/16 11:01:14;;;;;;;2.38;0.90;;;;;;;12.43;47.19;92613.19;2072001;69;20156;-83
2023/11/16 11:03:43;;;;;;;1.92;1.13;;;;;;;12.35;47.27;92598.66;2071869;69;20180;-83
2023/11/16 11:06:17;;;;;;;5.63;1.60;;;;;;;12.04;47.16;92582.19;2071942;69;20136;-83
2023/11/16 11:08:44;;;;;;;2.03;1.20;;;;;;;11.52;47.13;92573.03;2068383;69;20614;-83
2023/11/16 11:11:11;;;;;;;1.73;1.10;;;;;;;11.84;46.85;92559.28;2071687;69;20174;-84
2023/11/16 11:13:41;;;;;;;2.70;1.70;;;;;;;11.40;47.81;92549.81;2071834;69;20175;-84
2023/11/16 11:16:08;;;;;;;4.70;2.70;;;;;;;11.16;48.24;92540.75;2071747;69;20172;-84
2023/11/16 11:18:48;;;;;;;5.85;2.97;;;;;;;11.45;48.05;92540.97;2071808;69;20495;-84
2023/11/16 11:21:17;;;;;;;8.40;4.28;;;;;;;11.31;48.38;92528.91;2068679;69;20147;-84
2023/11/16 11:23:42;;;;;;;9.60;4.43;;;;;;;10.80;49.38;92530.97;2071961;69;20140;-85
2023/11/16 11:26:13;;;;;;;4.07;1.92;;;;;;;10.75;50.57;92521.53;2072072;69;20148;-84
2023/11/16 11:28:41;;;;;;;2.42;1.10;;;;;;;10.64;50.22;92508.97;2071926;69;20167;-83
2023/11/16 11:31:10;;;;;;;3.00;1.90;;;;;;;10.62;50.37;92510.94;2071809;69;20213;-83
2023/11/16 11:33:42;;;;;;;2.92;1.83;;;;;;;10.38;50.12;92494.13;2071891;69;20189;-83
2023/11/16 11:36:17;;;;;;;2.80;1.80;;;;;;;10.25;50.11;92474.31;2071805;69;20140;-83
2023/11/16 11:38:51;;;;;;;2.90;1.70;;;;;;;10.55;51.09;92464.84;2071886;69;20244;-83
2023/11/16 11:41:18;;;;;;;3.50;2.08;;;;;;;10.57;50.55;92450.13;2071676;69;20190;-83
2023/11/16 11:43:45;;;;;;;3.13;1.80;;;;;;;10.25;50.23;92430.03;2071794;69;20167;-83